createdAt,value
2023-01-19T00:05:06.217Z,86.73
2023-01-19T00:15:12.841Z,87.13
2023-01-19T00:25:16.374Z,86.93
2023-01-19T00:35:21.180Z,87.47
2023-01-19T00:45:25.787Z,88.43
2023-01-19T00:55:32.443Z,88.70
2023-01-19T01:05:35.891Z,86.57
2023-01-19T01:15:40.707Z,87.07
2023-01-19T01:25:44.191Z,85.90
2023-01-19T01:35:49.805Z,86.70
2023-01-19T01:45:55.006Z,85.80
2023-01-19T01:56:01.250Z,87.50
2023-01-19T02:06:08.131Z,87.53
2023-01-19T02:16:13.996Z,87.40
2023-01-19T02:26:22.872Z,86.87
2023-01-19T02:36:31.416Z,84.83
2023-01-19T02:46:37.449Z,88.33
2023-01-19T02:56:52.263Z,88.40
2023-01-19T03:07:04.617Z,86.87
2023-01-19T03:17:10.851Z,88.97
2023-01-19T03:27:20.965Z,88.47
2023-01-19T03:37:25.846Z,87.30
2023-01-19T03:47:30.819Z,87.70
2023-01-19T03:57:34.333Z,100.87
2023-01-19T04:07:39.169Z,98.90
2023-01-19T04:17:42.947Z,99.10
2023-01-19T04:27:47.763Z,97.00
2023-01-19T04:37:51.209Z,97.33
2023-01-19T04:47:56.046Z,97.13
2023-01-19T04:57:59.539Z,97.07
2023-01-19T05:08:04.463Z,95.13
2023-01-19T05:18:08.045Z,96.37
2023-01-19T05:28:13.254Z,89.80
2023-01-19T05:38:20.825Z,95.73
2023-01-19T05:48:25.835Z,94.17
2023-01-19T05:58:29.532Z,94.67
2023-01-19T06:08:34.458Z,92.20
2023-01-19T06:18:38.071Z,95.13
2023-01-19T06:28:42.843Z,89.50
2023-01-19T06:38:46.435Z,89.10
2023-01-19T06:48:51.274Z,87.80
2023-01-19T06:58:55.314Z,89.90
2023-01-19T07:09:00.337Z,90.30
2023-01-19T07:19:03.803Z,90.60
2023-01-19T07:29:08.648Z,94.43
2023-01-19T07:39:12.066Z,91.73
2023-01-19T07:49:16.964Z,99.93
2023-01-19T07:59:20.446Z,97.20
2023-01-19T08:09:25.475Z,97.43
2023-01-19T08:19:29.216Z,98.03
2023-01-19T08:29:34.025Z,98.33
2023-01-19T08:39:37.423Z,98.57
2023-01-19T08:49:42.473Z,99.40
2023-01-19T08:59:47.458Z,98.97
2023-01-19T09:09:52.340Z,99.63
2023-01-19T09:19:55.825Z,100.87
2023-01-19T09:30:00.644Z,99.30
2023-01-19T09:40:04.331Z,99.37
2023-01-19T09:50:20.538Z,97.87
2023-01-19T10:00:25.425Z,99.87
2023-01-19T10:10:33.095Z,100.10
2023-01-19T10:20:41.616Z,99.50
2023-01-19T10:30:49.199Z,101.70
2023-01-19T10:40:59.739Z,99.07
2023-01-19T10:51:07.295Z,98.00
2023-01-19T11:01:20.210Z,97.70
2023-01-19T11:11:26.948Z,100.67
2023-01-19T11:21:33.341Z,99.67
2023-01-19T11:31:38.317Z,95.90
2023-01-19T11:41:42.933Z,96.97
2023-01-19T11:51:56.430Z,98.60
2023-01-19T12:02:03.696Z,92.80
2023-01-19T12:12:13.475Z,96.30
2023-01-19T12:22:19.208Z,99.00
2023-01-19T12:32:35.319Z,101.80
2023-01-19T12:42:45.439Z,100.00
2023-01-19T12:52:57.484Z,97.20
2023-01-19T13:03:02.222Z,97.53
2023-01-19T13:13:19.837Z,99.13
2023-01-19T13:23:26.624Z,106.97
2023-01-19T13:33:49.797Z,101.33
2023-01-19T13:44:01.379Z,105.53
2023-01-19T13:54:06.785Z,108.20
2023-01-19T14:04:30.835Z,109.10
2023-01-19T14:14:36.034Z,110.63
2023-01-19T14:24:39.427Z,115.13
2023-01-19T14:34:46.950Z,113.47
2023-01-19T14:44:53.454Z,113.83
2023-01-19T14:55:00.030Z,107.70
2023-01-19T15:05:03.518Z,101.53
2023-01-19T15:15:16.920Z,99.47
2023-01-19T15:25:26.158Z,101.80
2023-01-19T15:35:31.319Z,115.53
2023-01-19T15:45:37.818Z,129.30
2023-01-19T15:55:42.780Z,131.70
2023-01-19T16:05:47.741Z,133.20
2023-01-19T16:15:52.505Z,131.37
2023-01-19T16:26:01.164Z,131.47
2023-01-19T16:36:26.532Z,129.37
2023-01-19T16:46:33.986Z,132.67
2023-01-19T16:56:38.943Z,117.40
2023-01-19T17:06:42.453Z,111.97
2023-01-19T17:16:47.581Z,119.27
2023-01-19T17:26:51.087Z,123.20
2023-01-19T17:37:02.756Z,120.50
2023-01-19T17:47:06.571Z,114.93
2023-01-19T17:57:11.669Z,117.07
2023-01-19T18:07:15.091Z,115.30
2023-01-19T18:17:20.395Z,112.77
2023-01-19T18:27:23.932Z,138.07
2023-01-19T18:37:28.749Z,118.63
2023-01-19T18:47:34.687Z,108.73
2023-01-19T18:57:39.569Z,111.77
2023-01-19T19:07:43.496Z,110.90
2023-01-19T19:17:48.511Z,110.30
2023-01-19T19:27:53.507Z,107.30
2023-01-19T19:37:58.469Z,127.13
2023-01-19T19:48:02.229Z,114.80
2023-01-19T19:58:07.323Z,109.80
2023-01-19T20:08:13.188Z,107.20
2023-01-19T20:18:18.227Z,103.00
2023-01-19T20:28:21.682Z,124.67
2023-01-19T20:38:26.705Z,110.73
2023-01-19T20:48:30.673Z,105.07
2023-01-19T20:58:35.747Z,110.77
2023-01-19T21:08:39.629Z,105.47
2023-01-19T21:18:45.606Z,104.43
2023-01-19T21:28:50.062Z,106.67
2023-01-19T21:39:00.176Z,112.07
2023-01-19T21:49:08.500Z,105.63
2023-01-19T21:59:17.285Z,110.43
2023-01-19T22:09:21.528Z,105.97
2023-01-19T22:19:26.661Z,105.20
2023-01-19T22:29:30.307Z,103.43
2023-01-19T22:39:35.555Z,100.47
2023-01-19T22:49:38.981Z,102.93
2023-01-19T22:59:44.004Z,105.00
2023-01-19T23:09:47.461Z,103.00
2023-01-19T23:19:52.274Z,102.73
2023-01-19T23:29:55.667Z,99.77
2023-01-19T23:40:00.542Z,97.87
2023-01-19T23:50:05.248Z,101.43
